createdAt,value
2023-02-07T00:01:19.445Z,97793.19
2023-02-07T00:03:46.820Z,97796.53
2023-02-07T00:06:16.672Z,97795.28
2023-02-07T00:08:44.255Z,97799.16
2023-02-07T00:11:16.500Z,97783.88
2023-02-07T00:13:44.913Z,97783.69
2023-02-07T00:16:12.381Z,97800.19
2023-02-07T00:18:40.744Z,97798.66
2023-02-07T00:21:15.887Z,97788.50
2023-02-07T00:23:43.501Z,97776.09
2023-02-07T00:26:11.912Z,97775.84
2023-02-07T00:28:39.757Z,97776.09
2023-02-07T00:31:07.732Z,97766.44
2023-02-07T00:33:39.396Z,97750.44
2023-02-07T00:36:08.401Z,97744.56
2023-02-07T00:38:35.154Z,97768.97
2023-02-07T00:41:02.077Z,97760.53
2023-02-07T00:43:32.625Z,97736.41
2023-02-07T00:46:01.831Z,97761.75
2023-02-07T00:48:29.838Z,97741.22
2023-02-07T00:50:56.761Z,97745.75
2023-02-07T00:53:24.331Z,97756.19
2023-02-07T00:55:51.260Z,97743.47
2023-02-07T00:58:18.003Z,97739.69
2023-02-07T01:00:45.570Z,97763.28
2023-02-07T01:03:12.312Z,97757.94
2023-02-07T01:05:39.730Z,97766.31
2023-02-07T01:08:06.758Z,97742.25
2023-02-07T01:10:35.410Z,97771.19
2023-02-07T01:13:02.130Z,97785.63
2023-02-07T01:15:28.941Z,97768.38
2023-02-07T01:17:55.731Z,97785.13
2023-02-07T01:20:22.483Z,97786.38
2023-02-07T01:22:49.138Z,97795.06
2023-02-07T01:25:15.804Z,97778.84
2023-02-07T01:27:42.491Z,97772.53
2023-02-07T01:30:09.883Z,97799.19
2023-02-07T01:32:36.545Z,97807.81
2023-02-07T01:35:03.744Z,97797.69
2023-02-07T01:37:32.394Z,97771.81
2023-02-07T01:39:59.087Z,97790.84
2023-02-07T01:42:27.802Z,97791.59
2023-02-07T01:44:54.400Z,97775.06
2023-02-07T01:47:23.614Z,97784.72
2023-02-07T01:49:54.181Z,97784.19
2023-02-07T01:52:25.998Z,97789.03
2023-02-07T01:54:58.927Z,97802.22
2023-02-07T01:57:26.127Z,97781.19
2023-02-07T01:59:56.085Z,97796.66
2023-02-07T02:02:24.755Z,97797.91
2023-02-07T02:04:54.174Z,97782.19
2023-02-07T02:07:21.742Z,97780.69
2023-02-07T02:09:48.462Z,97803.53
2023-02-07T02:12:18.627Z,97798.47
2023-02-07T02:15:23.342Z,97797.72
2023-02-07T02:17:59.408Z,97797.47
2023-02-07T02:20:44.478Z,97806.34
2023-02-07T02:23:30.245Z,97816.53
2023-02-07T02:26:17.181Z,97799.53
2023-02-07T02:29:04.263Z,97800.56
2023-02-07T02:31:52.571Z,97802.81
2023-02-07T02:34:43.573Z,97807.91
2023-02-07T02:37:30.657Z,97803.34
2023-02-07T02:40:30.933Z,97802.34
2023-02-07T02:43:28.682Z,97828.00
2023-02-07T02:46:04.871Z,97820.63
2023-02-07T02:48:33.929Z,97832.56
2023-02-07T02:51:01.019Z,97813.28
2023-02-07T02:53:27.815Z,97833.59
2023-02-07T02:56:15.807Z,97833.84
2023-02-07T02:59:10.908Z,97840.69
2023-02-07T03:01:49.809Z,97849.06
2023-02-07T03:04:35.358Z,97851.38
2023-02-07T03:07:08.684Z,97834.63
2023-02-07T03:10:08.571Z,97838.66
2023-02-07T03:12:48.463Z,97833.34
2023-02-07T03:15:34.295Z,97837.16
2023-02-07T03:18:08.819Z,97832.06
2023-02-07T03:20:50.268Z,97820.69
2023-02-07T03:23:20.171Z,97825.25
2023-02-07T03:25:50.703Z,97795.53
2023-02-07T03:28:21.775Z,97844.28
2023-02-07T03:30:51.724Z,97820.41
2023-02-07T03:33:20.037Z,97794.78
2023-02-07T03:35:58.057Z,97803.16
2023-02-07T03:38:25.070Z,97794.53
2023-02-07T03:40:58.418Z,97795.03
2023-02-07T03:43:29.126Z,97777.78
2023-02-07T03:45:56.730Z,97799.59
2023-02-07T03:48:23.780Z,97815.84
2023-02-07T03:50:52.110Z,97775.75
2023-02-07T03:53:20.372Z,97813.81
2023-02-07T03:55:47.259Z,97810.78
2023-02-07T03:58:14.140Z,97818.13
2023-02-07T04:00:40.952Z,97828.28
2023-02-07T04:03:07.763Z,97817.38
2023-02-07T04:05:34.601Z,97823.97
2023-02-07T04:08:01.568Z,97815.34
2023-02-07T04:10:28.370Z,97847.56
2023-02-07T04:12:55.056Z,97788.44
2023-02-07T04:15:22.116Z,97796.31
2023-02-07T04:17:48.799Z,97789.22
2023-02-07T04:20:15.539Z,97797.84
2023-02-07T04:22:42.237Z,97801.88
2023-02-07T04:25:09.222Z,97780.56
2023-02-07T04:27:35.914Z,97832.84
2023-02-07T04:30:02.667Z,97790.72
2023-02-07T04:32:29.426Z,97811.75
2023-02-07T04:34:56.194Z,97826.22
2023-02-07T04:37:22.946Z,97778.00
2023-02-07T04:39:49.678Z,97790.97
2023-02-07T04:42:16.445Z,97757.69
2023-02-07T04:44:43.219Z,97746.78
2023-02-07T04:47:09.895Z,97760.25
2023-02-07T04:49:36.694Z,97756.91
2023-02-07T04:52:03.461Z,97751.63
2023-02-07T04:54:30.293Z,97755.69
2023-02-07T04:56:57.171Z,97769.09
2023-02-07T04:59:23.961Z,97794.00
2023-02-07T05:01:50.751Z,97775.19
2023-02-07T05:04:17.552Z,97775.72
2023-02-07T05:06:44.409Z,97807.72
2023-02-07T05:09:11.251Z,97786.38
2023-02-07T05:11:37.972Z,97785.41
2023-02-07T05:14:04.910Z,97802.13
2023-02-07T05:16:31.740Z,97833.13
2023-02-07T05:18:58.409Z,97802.91
2023-02-07T05:21:25.207Z,97795.56
2023-02-07T05:23:52.219Z,97810.03
2023-02-07T05:26:19.147Z,97794.53
2023-02-07T05:28:45.949Z,97779.06
2023-02-07T05:31:12.883Z,97799.38
2023-02-07T05:33:39.647Z,97796.56
2023-02-07T05:36:07.240Z,97776.03
2023-02-07T05:38:34.084Z,97803.44
2023-02-07T05:41:01.248Z,97804.19
2023-02-07T05:43:27.935Z,97815.34
2023-02-07T05:45:54.888Z,97785.69
2023-02-07T05:48:21.630Z,97830.81
2023-02-07T05:50:48.527Z,97832.38
2023-02-07T05:53:15.256Z,97794.56
2023-02-07T05:55:41.930Z,97810.53
2023-02-07T05:58:08.737Z,97818.91
2023-02-07T06:00:35.449Z,97809.50
2023-02-07T06:03:02.233Z,97803.44
2023-02-07T06:05:32.097Z,97828.78
2023-02-07T06:07:59.028Z,97819.41
2023-02-07T06:10:25.747Z,97788.97
2023-02-07T06:12:52.532Z,97802.16
2023-02-07T06:15:19.373Z,97839.44
2023-02-07T06:17:46.069Z,97811.56
2023-02-07T06:20:13.129Z,97834.88
2023-02-07T06:22:39.957Z,97818.66
2023-02-07T06:25:11.831Z,97849.34
2023-02-07T06:27:40.418Z,97837.91
2023-02-07T06:30:09.046Z,97836.66
2023-02-07T06:32:35.851Z,97832.56
2023-02-07T06:35:02.800Z,97814.56
2023-02-07T06:37:29.717Z,97825.22
2023-02-07T06:39:56.508Z,97822.44
2023-02-07T06:42:23.374Z,97802.38
2023-02-07T06:44:50.109Z,97807.47
2023-02-07T06:47:17.277Z,97800.34
2023-02-07T06:49:43.984Z,97866.59
2023-02-07T06:52:10.686Z,97810.25
2023-02-07T06:54:37.738Z,97813.28
2023-02-07T06:57:04.530Z,97829.50
2023-02-07T06:59:31.611Z,97859.22
2023-02-07T07:02:00.623Z,97846.06
2023-02-07T07:04:27.824Z,97844.00
2023-02-07T07:06:54.567Z,97838.41
2023-02-07T07:09:21.302Z,97841.47
2023-02-07T07:11:48.018Z,97838.94
2023-02-07T07:14:14.734Z,97831.00
2023-02-07T07:16:41.478Z,97846.78
2023-02-07T07:19:08.326Z,97841.72
2023-02-07T07:21:35.795Z,97828.53
2023-02-07T07:24:02.479Z,97815.84
2023-02-07T07:26:39.538Z,97872.69
2023-02-07T07:29:13.646Z,97856.72
2023-02-07T07:31:40.403Z,97844.03
2023-02-07T07:34:07.171Z,97849.59
2023-02-07T07:36:33.830Z,97828.78
2023-02-07T07:39:03.597Z,97870.41
2023-02-07T07:41:30.429Z,97867.59
2023-02-07T07:43:57.106Z,97837.38
2023-02-07T07:46:23.857Z,97845.75
2023-02-07T07:48:50.752Z,97818.63
2023-02-07T07:51:17.446Z,97809.78
2023-02-07T07:53:45.197Z,97807.50
2023-02-07T07:56:11.924Z,97801.66
2023-02-07T07:58:38.662Z,97806.22
2023-02-07T08:01:05.755Z,97823.50
2023-02-07T08:03:32.506Z,97830.06
2023-02-07T08:05:59.312Z,97815.84
2023-02-07T08:08:26.145Z,97841.75
2023-02-07T08:10:54.005Z,97817.88
2023-02-07T08:13:20.768Z,97819.94
2023-02-07T08:15:47.909Z,97801.91
2023-02-07T08:18:14.672Z,97823.97
2023-02-07T08:20:41.758Z,97848.81
2023-02-07T08:23:08.488Z,97836.34
2023-02-07T08:25:35.217Z,97867.09
2023-02-07T08:28:04.356Z,97845.75
2023-02-07T08:30:31.307Z,97838.66
2023-02-07T08:32:58.142Z,97846.25
2023-02-07T08:35:24.823Z,97841.19
2023-02-07T08:37:51.496Z,97841.94
2023-02-07T08:40:18.498Z,97831.50
2023-02-07T08:42:45.597Z,97837.84
2023-02-07T08:45:14.306Z,97844.94
2023-02-07T08:47:40.969Z,97844.66
2023-02-07T08:50:08.992Z,97840.31
2023-02-07T08:52:35.646Z,97853.00
2023-02-07T08:55:02.680Z,97843.31
2023-02-07T08:57:29.361Z,97857.75
2023-02-07T08:59:56.263Z,97861.53
2023-02-07T09:02:23.432Z,97857.94
2023-02-07T09:04:50.301Z,97851.28
2023-02-07T09:07:17.052Z,97850.50
2023-02-07T09:09:44.119Z,97861.63
2023-02-07T09:12:11.970Z,97848.59
2023-02-07T09:14:39.969Z,97860.50
2023-02-07T09:17:08.098Z,97869.09
2023-02-07T09:19:35.715Z,97861.69
2023-02-07T09:22:03.693Z,97873.34
2023-02-07T09:24:30.479Z,97876.34
2023-02-07T09:26:57.170Z,97871.44
2023-02-07T09:29:24.229Z,97871.41
2023-02-07T09:31:51.474Z,97855.41
2023-02-07T09:34:18.495Z,97870.03
2023-02-07T09:36:45.340Z,97868.41
2023-02-07T09:39:12.154Z,97869.41
2023-02-07T09:41:56.028Z,97872.38
2023-02-07T09:44:41.449Z,97871.03
2023-02-07T09:47:14.807Z,97873.75
2023-02-07T09:50:00.239Z,97875.72
2023-02-07T09:52:36.035Z,97875.38
2023-02-07T09:55:05.538Z,97866.38
2023-02-07T09:57:41.580Z,97870.88
2023-02-07T10:00:30.910Z,97890.47
2023-02-07T10:03:14.468Z,97866.66
2023-02-07T10:05:49.487Z,97856.66
2023-02-07T10:08:17.784Z,97867.59
2023-02-07T10:10:58.246Z,97871.06
2023-02-07T10:13:55.542Z,97860.84
2023-02-07T10:16:41.498Z,97855.00
2023-02-07T10:19:26.209Z,97854.78
2023-02-07T10:22:01.457Z,97849.16
2023-02-07T10:24:52.063Z,97838.16
2023-02-07T10:27:38.038Z,97847.03
2023-02-07T10:30:17.181Z,97835.34
2023-02-07T10:32:46.980Z,97842.44
2023-02-07T10:35:28.527Z,97845.75
2023-02-07T10:37:59.532Z,97849.56
2023-02-07T10:40:40.966Z,97848.06
2023-02-07T10:43:32.970Z,97861.78
2023-02-07T10:46:06.400Z,97861.53
2023-02-07T10:48:34.308Z,97863.06
2023-02-07T10:51:03.571Z,97865.81
2023-02-07T10:53:56.512Z,97869.59
2023-02-07T10:56:26.688Z,97855.31
2023-02-07T10:58:54.410Z,97855.09
2023-02-07T11:01:24.171Z,97860.94
2023-02-07T11:03:50.900Z,97858.69
2023-02-07T11:06:26.695Z,97854.81
2023-02-07T11:09:12.320Z,97855.78
2023-02-07T11:11:40.831Z,97870.59
2023-02-07T11:14:08.318Z,97862.16
2023-02-07T11:16:35.379Z,97857.28
2023-02-07T11:19:06.915Z,97862.91
2023-02-07T11:21:33.494Z,97855.50
2023-02-07T11:24:12.976Z,97854.94
2023-02-07T11:27:05.358Z,97846.00
2023-02-07T11:29:37.391Z,97847.53
2023-02-07T11:32:04.510Z,97841.44
2023-02-07T11:34:42.361Z,97831.69
2023-02-07T11:37:23.110Z,97829.59
2023-02-07T11:39:51.548Z,97831.34
2023-02-07T11:42:31.895Z,97818.81
2023-02-07T11:45:04.394Z,97825.13
2023-02-07T11:47:32.119Z,97811.31
2023-02-07T11:50:04.676Z,97820.72
2023-02-07T11:52:33.254Z,97805.63
2023-02-07T11:55:06.042Z,97800.97
2023-02-07T11:57:33.811Z,97813.44
2023-02-07T12:00:17.156Z,97808.25
2023-02-07T12:02:52.005Z,97796.16
2023-02-07T12:05:25.805Z,97803.00
2023-02-07T12:08:00.801Z,97802.47
2023-02-07T12:10:36.476Z,97799.13
2023-02-07T12:13:21.890Z,97796.75
2023-02-07T12:15:54.364Z,97789.41
2023-02-07T12:18:24.179Z,97796.44
2023-02-07T12:21:27.209Z,97790.50
2023-02-07T12:24:01.518Z,97791.72
2023-02-07T12:26:52.055Z,97791.19
2023-02-07T12:29:37.492Z,97788.06
2023-02-07T12:32:29.252Z,97779.06
2023-02-07T12:35:06.322Z,97768.59
2023-02-07T12:37:44.947Z,97772.16
2023-02-07T12:40:20.178Z,97762.97
2023-02-07T12:42:57.662Z,97763.50
2023-02-07T12:45:51.671Z,97763.72
2023-02-07T12:48:30.645Z,97763.94
2023-02-07T12:51:30.312Z,97753.91
2023-02-07T12:54:35.164Z,97757.69
2023-02-07T12:57:10.481Z,97755.09
2023-02-07T13:00:01.975Z,97769.59
2023-02-07T13:02:37.844Z,97760.63
2023-02-07T13:05:37.631Z,97758.03
2023-02-07T13:08:21.936Z,97763.88
2023-02-07T13:11:08.325Z,97758.78
2023-02-07T13:13:59.545Z,97759.47
2023-02-07T13:16:40.771Z,97766.03
2023-02-07T13:19:25.421Z,97768.84
2023-02-07T13:22:30.365Z,97772.66
2023-02-07T13:24:57.954Z,97764.44
2023-02-07T13:27:27.777Z,97760.97
2023-02-07T13:29:55.218Z,97760.84
2023-02-07T13:32:25.075Z,97769.63
2023-02-07T13:35:03.162Z,97772.22
2023-02-07T13:37:49.848Z,97756.09
2023-02-07T13:40:41.653Z,97769.63
2023-02-07T13:43:08.327Z,97767.56
2023-02-07T13:45:47.666Z,97767.34
2023-02-07T13:48:34.250Z,97767.34
2023-02-07T13:51:27.502Z,97759.47
2023-02-07T13:54:22.495Z,97766.03
2023-02-07T13:57:19.642Z,97770.38
2023-02-07T14:00:16.355Z,97769.84
2023-02-07T14:02:50.620Z,97782.06
2023-02-07T14:05:28.608Z,97791.50
2023-02-07T14:08:00.012Z,97790.94
2023-02-07T14:10:45.977Z,97792.22
2023-02-07T14:13:34.711Z,97791.72
2023-02-07T14:16:12.852Z,97793.00
2023-02-07T14:18:52.339Z,97788.91
2023-02-07T14:21:18.942Z,97786.38
2023-02-07T14:23:57.668Z,97797.84
2023-02-07T14:26:39.376Z,97797.13
2023-02-07T14:29:22.779Z,97798.19
2023-02-07T14:31:49.535Z,97802.31
2023-02-07T14:34:20.934Z,97786.25
2023-02-07T14:36:48.676Z,97810.31
2023-02-07T14:39:18.040Z,97811.38
2023-02-07T14:41:46.711Z,97784.28
2023-02-07T14:44:36.568Z,97811.38
2023-02-07T14:47:05.515Z,97831.06
2023-02-07T14:49:38.623Z,97822.84
2023-02-07T14:52:11.187Z,97822.28
2023-02-07T14:54:40.917Z,97811.81
2023-02-07T14:57:10.576Z,97814.84
2023-02-07T15:00:04.968Z,97819.19
2023-02-07T15:02:42.656Z,97820.69
2023-02-07T15:05:26.330Z,97813.56
2023-02-07T15:08:01.927Z,97823.28
2023-02-07T15:10:32.863Z,97824.38
2023-02-07T15:13:00.895Z,97816.16
2023-02-07T15:15:50.299Z,97819.19
2023-02-07T15:18:18.723Z,97828.34
2023-02-07T15:20:51.246Z,97827.06
2023-02-07T15:23:18.312Z,97832.69
2023-02-07T15:25:45.789Z,97826.31
2023-02-07T15:28:27.476Z,97832.38
2023-02-07T15:31:02.148Z,97829.56
2023-02-07T15:33:36.847Z,97838.22
2023-02-07T15:36:24.649Z,97834.63
2023-02-07T15:38:51.929Z,97838.00
2023-02-07T15:41:18.750Z,97839.31
2023-02-07T15:44:05.904Z,97843.41
2023-02-07T15:46:56.970Z,97847.75
2023-02-07T15:49:31.382Z,97832.81
2023-02-07T15:52:00.971Z,97852.16
2023-02-07T15:54:27.930Z,97857.56
2023-02-07T15:57:00.527Z,97860.47
2023-02-07T15:59:31.741Z,97858.63
2023-02-07T16:02:01.194Z,97853.34
2023-02-07T16:04:31.319Z,97857.44
2023-02-07T16:07:07.010Z,97854.78
2023-02-07T16:09:43.350Z,97858.28
2023-02-07T16:12:45.795Z,97868.34
2023-02-07T16:15:22.611Z,97865.81
2023-02-07T16:17:49.280Z,97866.38
2023-02-07T16:20:16.667Z,97869.69
2023-02-07T16:22:45.828Z,97878.13
2023-02-07T16:25:21.279Z,97864.09
2023-02-07T16:27:50.724Z,97868.97
2023-02-07T16:30:38.230Z,97873.06
2023-02-07T16:33:07.135Z,97873.59
2023-02-07T16:35:33.809Z,97876.16
2023-02-07T16:38:00.472Z,97874.66
2023-02-07T16:40:27.219Z,97874.44
2023-02-07T16:42:55.432Z,97881.13
2023-02-07T16:45:24.884Z,97875.50
2023-02-07T16:47:51.953Z,97873.47
2023-02-07T16:50:21.622Z,97859.78
2023-02-07T16:52:49.777Z,97891.91
2023-02-07T16:55:18.884Z,97867.38
2023-02-07T16:57:47.719Z,97871.47
2023-02-07T17:00:18.064Z,97881.97
2023-02-07T17:02:48.583Z,97879.16
2023-02-07T17:05:16.290Z,97887.03
2023-02-07T17:07:43.260Z,97885.31
2023-02-07T17:10:19.721Z,97887.03
2023-02-07T17:12:46.580Z,97888.03
2023-02-07T17:15:13.345Z,97886.75
2023-02-07T17:17:40.114Z,97888.81
2023-02-07T17:20:27.086Z,97889.34
2023-02-07T17:22:54.366Z,97879.16
2023-02-07T17:25:26.194Z,97882.59
2023-02-07T17:27:53.015Z,97877.81
2023-02-07T17:30:28.438Z,97881.22
2023-02-07T17:32:56.266Z,97881.31
2023-02-07T17:35:23.663Z,97873.25
2023-02-07T17:37:50.448Z,97884.19
2023-02-07T17:40:23.033Z,97889.56
2023-02-07T17:42:50.280Z,97898.09
2023-02-07T17:45:17.250Z,97896.78
2023-02-07T17:47:44.508Z,97902.69
2023-02-07T17:50:20.097Z,97894.06
2023-02-07T17:52:46.936Z,97898.16
2023-02-07T17:55:14.778Z,97899.44
2023-02-07T17:57:42.334Z,97889.25
2023-02-07T18:00:21.819Z,97891.56
2023-02-07T18:02:48.730Z,97895.66
2023-02-07T18:05:16.825Z,97886.16
2023-02-07T18:07:44.959Z,97895.94
2023-02-07T18:10:17.896Z,97891.38
2023-02-07T18:12:44.711Z,97870.28
2023-02-07T18:15:12.292Z,97880.53
2023-02-07T18:17:39.428Z,97900.69
2023-02-07T18:20:11.115Z,97892.38
2023-02-07T18:22:38.363Z,97896.00
2023-02-07T18:25:05.384Z,97874.72
2023-02-07T18:27:32.419Z,97885.00
2023-02-07T18:29:59.145Z,97881.97
2023-02-07T18:32:25.962Z,97888.28
2023-02-07T18:34:52.857Z,97894.19
2023-02-07T18:37:21.249Z,97890.94
2023-02-07T18:39:48.891Z,97863.63
2023-02-07T18:42:17.635Z,97883.16
2023-02-07T18:44:44.605Z,97908.34
2023-02-07T18:47:11.339Z,97895.00
2023-02-07T18:49:38.141Z,97899.06
2023-02-07T18:52:04.993Z,97904.94
2023-02-07T18:54:31.743Z,97895.47
2023-02-07T18:56:58.523Z,97897.47
2023-02-07T18:59:25.552Z,97893.97
2023-02-07T19:01:53.722Z,97911.84
2023-02-07T19:04:21.360Z,97894.31
2023-02-07T19:06:49.858Z,97881.63
2023-02-07T19:09:17.718Z,97899.41
2023-02-07T19:11:45.011Z,97897.13
2023-02-07T19:14:18.347Z,97860.09
2023-02-07T19:16:46.116Z,97886.75
2023-02-07T19:19:14.732Z,97881.72
2023-02-07T19:21:41.718Z,97890.59
2023-02-07T19:24:10.877Z,97912.00
2023-02-07T19:26:38.956Z,97905.63
2023-02-07T19:29:06.154Z,97897.72
2023-02-07T19:31:33.303Z,97906.63
2023-02-07T19:34:00.468Z,97904.81
2023-02-07T19:36:27.958Z,97889.09
2023-02-07T19:38:55.110Z,97894.06
2023-02-07T19:41:24.168Z,97900.69
2023-02-07T19:43:51.175Z,97903.25
2023-02-07T19:46:19.157Z,97898.16
2023-02-07T19:48:47.447Z,97895.94
2023-02-07T19:51:22.107Z,97895.69
2023-02-07T19:53:51.263Z,97902.00
2023-02-07T19:56:19.509Z,97902.78
2023-02-07T19:58:48.896Z,97915.53
2023-02-07T20:01:16.527Z,97907.13
2023-02-07T20:03:44.440Z,97916.28
2023-02-07T20:06:13.927Z,97912.97
2023-02-07T20:08:41.442Z,97898.84
2023-02-07T20:11:12.560Z,97911.94
2023-02-07T20:13:42.149Z,97908.41
2023-02-07T20:16:12.575Z,97879.25
2023-02-07T20:18:39.413Z,97897.03
2023-02-07T20:21:11.677Z,97915.03
2023-02-07T20:23:40.008Z,97919.88
2023-02-07T20:26:08.981Z,97908.69
2023-02-07T20:28:36.673Z,97928.09
2023-02-07T20:31:08.672Z,97905.97
2023-02-07T20:33:36.945Z,97921.44
2023-02-07T20:36:04.929Z,97919.22
2023-02-07T20:38:31.690Z,97915.44
2023-02-07T20:41:07.249Z,97919.56
2023-02-07T20:43:34.080Z,97936.63
2023-02-07T20:46:12.717Z,97938.56
2023-02-07T20:48:42.836Z,97929.97
2023-02-07T20:51:11.145Z,97933.72
2023-02-07T20:53:43.636Z,97931.44
2023-02-07T20:56:18.894Z,97926.22
2023-02-07T20:58:47.275Z,97933.34
2023-02-07T21:01:20.601Z,97932.03
2023-02-07T21:03:50.380Z,97931.47
2023-02-07T21:06:18.035Z,97941.63
2023-02-07T21:08:45.291Z,97925.72
2023-02-07T21:11:12.751Z,97942.56
2023-02-07T21:13:39.898Z,97903.97
2023-02-07T21:16:08.032Z,97947.13
2023-02-07T21:18:35.386Z,97916.47
2023-02-07T21:21:07.024Z,97930.50
2023-02-07T21:23:34.148Z,97917.50
2023-02-07T21:26:09.567Z,97940.19
2023-02-07T21:28:37.030Z,97907.38
2023-02-07T21:31:05.582Z,97943.47
2023-02-07T21:33:32.368Z,97921.09
2023-02-07T21:36:05.223Z,97929.22
2023-02-07T21:38:33.305Z,97912.00
2023-02-07T21:41:00.598Z,97920.19
2023-02-07T21:43:27.278Z,97921.16
2023-02-07T21:45:55.066Z,97929.13
2023-02-07T21:48:22.407Z,97926.56
2023-02-07T21:50:49.169Z,97909.09
2023-02-07T21:53:16.696Z,97921.28
2023-02-07T21:55:43.367Z,97905.56
2023-02-07T21:58:10.036Z,97886.06
2023-02-07T22:00:36.743Z,97912.78
2023-02-07T22:03:04.523Z,97912.06
2023-02-07T22:05:33.109Z,97923.94
2023-02-07T22:08:01.358Z,97941.28
2023-02-07T22:10:28.199Z,97891.00
2023-02-07T22:12:54.946Z,97896.13
2023-02-07T22:15:21.714Z,97938.84
2023-02-07T22:17:48.370Z,97912.94
2023-02-07T22:20:15.805Z,97901.47
2023-02-07T22:22:42.494Z,97901.00
2023-02-07T22:25:09.183Z,97892.84
2023-02-07T22:27:36.900Z,97880.19
2023-02-07T22:30:04.045Z,97888.81
2023-02-07T22:32:32.213Z,97906.59
2023-02-07T22:35:16.557Z,97901.78
2023-02-07T22:37:43.468Z,97878.41
2023-02-07T22:40:10.651Z,97879.69
2023-02-07T22:42:37.328Z,97885.53
2023-02-07T22:45:04.354Z,97871.63
2023-02-07T22:47:31.085Z,97884.56
2023-02-07T22:49:57.719Z,97882.53
2023-02-07T22:52:24.431Z,97896.50
2023-02-07T22:54:51.305Z,97895.72
2023-02-07T22:57:18.091Z,97866.81
2023-02-07T22:59:44.907Z,97874.66
2023-02-07T23:02:12.200Z,97893.97
2023-02-07T23:04:39.689Z,97904.91
2023-02-07T23:07:06.659Z,97878.22
2023-02-07T23:09:33.729Z,97861.72
2023-02-07T23:12:01.164Z,97875.94
2023-02-07T23:14:27.997Z,97876.19
2023-02-07T23:16:55.597Z,97878.94
2023-02-07T23:19:22.512Z,97877.47
2023-02-07T23:21:49.546Z,97873.16
2023-02-07T23:24:16.602Z,97867.31
2023-02-07T23:26:43.553Z,97869.06
2023-02-07T23:29:10.528Z,97870.59
2023-02-07T23:31:37.333Z,97857.41
2023-02-07T23:34:04.180Z,97825.19
2023-02-07T23:36:30.895Z,97875.69
2023-02-07T23:38:57.549Z,97870.34
2023-02-07T23:41:24.267Z,97858.69
2023-02-07T23:43:50.987Z,97876.69
2023-02-07T23:46:18.343Z,97871.63
2023-02-07T23:48:45.856Z,97860.72
2023-02-07T23:51:13.801Z,97862.72
2023-02-07T23:53:49.256Z,97874.94
2023-02-07T23:56:19.286Z,97864.50
2023-02-07T23:58:47.744Z,97861.97
